Time;durP1;ratioP1;P1;durP2;ratioP2;P2;SDS_P1;SDS_P2;PMS_P1;PMS_P2;Temp;Humidity;BMP_temperature;BMP_pressure;BME280_temperature;BME280_humidity;BME280_pressure;Samples;Min_cycle;Max_cycle;Signal;HPM_P1;HPM_P2
2022/08/29 00:02:09;;;;;;;4.40;1.90;;;;;;;23.38;55.58;98948.41;4913763;29;20674;-64
2022/08/29 00:04:37;;;;;;;2.00;1.63;;;;;;;23.38;55.81;98947.63;4913754;29;20208;-65
2022/08/29 00:07:05;;;;;;;1.98;1.55;;;;;;;23.44;57.57;98944.22;4913503;29;20204;-65
2022/08/29 00:09:32;;;;;;;2.72;1.73;;;;;;;23.38;56.79;98943.19;4913486;29;20714;-65
2022/08/29 00:11:58;;;;;;;2.25;1.95;;;;;;;23.43;56.21;98940.00;4913460;29;20220;-65
2022/08/29 00:14:25;;;;;;;4.10;1.83;;;;;;;23.43;56.52;98937.41;4913506;29;20686;-64
2022/08/29 00:16:52;;;;;;;2.53;1.70;;;;;;;23.45;56.30;98938.00;4913302;29;20220;-64
2022/08/29 00:19:19;;;;;;;2.17;1.85;;;;;;;23.40;56.70;98935.19;4913392;29;20235;-64
2022/08/29 00:21:46;;;;;;;4.00;2.00;;;;;;;23.34;56.79;98939.38;4913409;29;20227;-65
2022/08/29 00:24:14;;;;;;;2.00;1.80;;;;;;;23.38;56.36;98935.38;4913396;29;20204;-65
2022/08/29 00:26:41;;;;;;;2.78;2.05;;;;;;;23.37;56.10;98935.59;4913580;29;20216;-65
2022/08/29 00:29:08;;;;;;;2.13;1.90;;;;;;;23.27;55.61;98935.94;4913606;29;20225;-64
2022/08/29 00:31:35;;;;;;;3.55;1.92;;;;;;;23.22;56.02;98944.38;4913081;29;20224;-65
2022/08/29 00:34:02;;;;;;;3.55;2.00;;;;;;;23.19;56.33;98942.16;4913284;29;20211;-65
2022/08/29 00:36:29;;;;;;;1.73;1.58;;;;;;;23.13;56.42;98940.31;4913270;29;20231;-65
2022/08/29 00:38:56;;;;;;;2.50;1.90;;;;;;;23.11;56.18;98938.91;4913156;29;20247;-64
2022/08/29 00:41:24;;;;;;;2.30;1.80;;;;;;;23.11;56.47;98942.31;4913159;29;20231;-64
2022/08/29 00:43:51;;;;;;;3.80;2.15;;;;;;;23.09;56.42;98941.69;4913138;29;20204;-64
2022/08/29 00:46:46;;;;;;;2.20;2.00;;;;;;;23.15;57.30;98938.31;4912428;29;20239;-64
2022/08/29 00:49:23;;;;;;;2.42;1.80;;;;;;;23.08;56.82;98942.72;4911598;29;20752;-64
2022/08/29 00:51:51;;;;;;;2.22;1.67;;;;;;;22.97;56.19;98936.25;4913110;29;20702;-65
2022/08/29 00:54:17;;;;;;;3.20;2.30;;;;;;;22.97;55.97;98940.66;4912887;29;20743;-65
2022/08/29 00:56:46;;;;;;;2.05;1.73;;;;;;;22.96;56.07;98929.44;4913201;29;20235;-64
2022/08/29 00:59:16;;;;;;;1.90;1.67;;;;;;;23.09;56.69;98933.88;4912996;29;20642;-64
2022/08/29 01:01:44;;;;;;;4.78;2.15;;;;;;;23.10;56.77;98919.84;4913265;29;20243;-65
2022/08/29 01:04:11;;;;;;;3.22;1.90;;;;;;;23.10;56.55;98930.28;4912982;29;20200;-65
2022/08/29 01:06:40;;;;;;;2.30;1.70;;;;;;;23.10;56.81;98925.06;4912885;29;20244;-64
2022/08/29 01:09:08;;;;;;;3.35;2.00;;;;;;;23.06;57.43;98929.06;4913144;29;20212;-64
2022/08/29 01:14:24;;;;;;;2.17;1.67;;;;;;;22.99;57.64;98929.03;4912955;29;20207;-65
2022/08/29 01:16:52;;;;;;;2.35;1.80;;;;;;;22.98;57.47;98926.63;4912910;29;20228;-65
2022/08/29 01:19:30;;;;;;;3.33;2.08;;;;;;;22.93;57.33;98931.59;4912804;29;20250;-64
2022/08/29 01:22:03;;;;;;;2.72;1.75;;;;;;;22.91;56.99;98930.97;4912848;29;20223;-65
2022/08/29 01:24:37;;;;;;;2.15;1.70;;;;;;;22.94;56.71;98930.59;4912682;29;20212;-64
2022/08/29 01:27:04;;;;;;;2.17;1.70;;;;;;;22.92;57.74;98937.78;4912670;29;20200;-64
2022/08/29 01:29:31;;;;;;;1.85;1.65;;;;;;;22.91;57.64;98926.56;4912807;29;20211;-64
2022/08/29 01:31:58;;;;;;;2.30;1.63;;;;;;;22.91;57.59;98925.75;4912609;29;20231;-65
2022/08/29 01:34:27;;;;;;;2.58;1.92;;;;;;;22.87;57.28;98927.16;4912585;29;20218;-64
2022/08/29 01:36:57;;;;;;;3.53;1.83;;;;;;;22.80;57.04;98929.72;4912894;29;20698;-64
2022/08/29 01:39:27;;;;;;;2.15;1.90;;;;;;;22.79;56.41;98934.13;4912805;29;20250;-64
2022/08/29 01:41:56;;;;;;;2.50;1.75;;;;;;;22.92;57.02;98943.00;4912797;29;20231;-65
2022/08/29 01:44:25;;;;;;;2.88;1.67;;;;;;;22.87;57.46;98929.78;4912624;29;20255;-64
2022/08/29 01:46:54;;;;;;;2.90;1.73;;;;;;;22.71;57.00;98934.28;4912776;29;20219;-65
2022/08/29 01:49:23;;;;;;;2.53;1.80;;;;;;;22.71;57.46;98941.31;4912434;29;20205;-64
2022/08/29 01:51:50;;;;;;;2.88;1.77;;;;;;;22.62;57.52;98938.06;4912423;29;20235;-65
2022/08/29 01:54:18;;;;;;;2.30;1.80;;;;;;;22.57;57.79;98936.03;4912530;29;20208;-64
2022/08/29 01:56:47;;;;;;;5.55;1.88;;;;;;;22.58;58.21;98947.25;4912471;29;20735;-65
2022/08/29 01:59:18;;;;;;;1.90;1.70;;;;;;;22.55;59.01;98948.44;4915594;29;20243;-64
2022/08/29 02:01:48;;;;;;;2.03;1.77;;;;;;;22.48;58.35;98950.19;4915729;29;20275;-65
2022/08/29 02:04:15;;;;;;;2.80;1.90;;;;;;;22.50;58.68;98950.00;4915799;29;20219;-65
2022/08/29 02:06:44;;;;;;;2.13;1.77;;;;;;;22.61;59.69;98946.88;4915653;29;20230;-65
2022/08/29 02:09:10;;;;;;;1.87;1.67;;;;;;;22.58;60.07;98947.25;4915621;29;20212;-64
2022/08/29 02:11:38;;;;;;;2.05;1.75;;;;;;;22.49;60.60;98954.44;4915660;29;20234;-64
2022/08/29 02:14:06;;;;;;;2.78;2.20;;;;;;;22.45;61.00;98941.97;4915518;29;20211;-64
2022/08/29 02:16:35;;;;;;;3.37;2.20;;;;;;;22.32;60.60;98940.88;4915558;29;20252;-64
2022/08/29 02:19:02;;;;;;;2.67;2.00;;;;;;;22.26;61.29;98938.25;4915366;29;20245;-64
2022/08/29 02:21:30;;;;;;;2.60;1.97;;;;;;;22.29;61.65;98946.47;4915554;29;20227;-64
2022/08/29 02:23:59;;;;;;;3.72;1.85;;;;;;;22.20;62.13;98937.19;4915819;29;20204;-64
2022/08/29 02:26:26;;;;;;;2.40;1.80;;;;;;;22.07;62.06;98931.84;4915507;29;20227;-65
2022/08/29 02:28:53;;;;;;;2.77;1.70;;;;;;;22.05;62.05;98939.88;4915704;29;20208;-64
2022/08/29 02:31:21;;;;;;;2.70;1.80;;;;;;;22.01;62.34;98940.41;4915374;29;20298;-64
2022/08/29 02:33:50;;;;;;;2.63;1.90;;;;;;;21.97;62.73;98945.19;4915309;29;20212;-64
2022/08/29 02:36:18;;;;;;;2.30;1.80;;;;;;;22.01;63.21;98940.41;4915307;29;20723;-64
2022/08/29 02:38:45;;;;;;;2.43;1.87;;;;;;;21.91;63.80;98945.94;4915119;29;20242;-64
2022/08/29 02:41:12;;;;;;;2.37;1.80;;;;;;;21.89;63.87;98943.53;4913682;29;20269;-65
2022/08/29 02:43:39;;;;;;;2.53;1.93;;;;;;;21.90;64.82;98950.34;4915173;29;20200;-64
2022/08/29 02:46:06;;;;;;;3.03;1.80;;;;;;;21.88;64.76;98947.13;4915010;29;20223;-65
2022/08/29 02:48:33;;;;;;;2.37;1.67;;;;;;;21.84;65.08;98945.06;4914976;29;20221;-65
2022/08/29 02:51:02;;;;;;;3.07;2.10;;;;;;;21.82;65.43;98949.69;4914840;29;20239;-64
2022/08/29 02:53:30;;;;;;;2.27;1.90;;;;;;;21.84;66.14;98951.06;4915081;29;20216;-64
2022/08/29 02:55:58;;;;;;;3.20;2.03;;;;;;;21.85;66.69;98952.72;4914849;29;20254;-65
2022/08/29 02:58:25;;;;;;;2.97;1.90;;;;;;;21.83;67.06;98946.88;4914945;29;20240;-64
2022/08/29 03:00:53;;;;;;;3.33;2.07;;;;;;;21.83;67.04;98954.69;4914647;29;20226;-64
2022/08/29 03:03:20;;;;;;;2.73;2.10;;;;;;;21.90;66.98;98965.97;4914683;29;20208;-64
2022/08/29 03:05:47;;;;;;;2.20;1.90;;;;;;;21.86;66.78;98959.50;4914667;29;20705;-65
2022/08/29 03:08:17;;;;;;;3.20;2.30;;;;;;;21.85;67.30;98970.13;4914695;29;20201;-65
2022/08/29 03:10:44;;;;;;;2.77;2.10;;;;;;;21.79;67.54;98963.88;4913788;29;20237;-65
2022/08/29 03:13:12;;;;;;;2.20;2.00;;;;;;;21.78;67.56;98964.03;4914487;29;20299;-64
2022/08/29 03:15:39;;;;;;;2.00;1.70;;;;;;;21.79;67.61;98965.66;4914798;29;20265;-64
2022/08/29 03:18:06;;;;;;;2.67;2.00;;;;;;;21.76;68.20;98968.63;4914424;29;20203;-64
2022/08/29 03:20:35;;;;;;;2.17;1.87;;;;;;;21.66;67.64;98974.13;4914360;29;20233;-64
2022/08/29 03:23:02;;;;;;;2.47;2.03;;;;;;;21.66;68.25;98974.13;4914433;29;20232;-65
2022/08/29 03:25:31;;;;;;;3.67;2.37;;;;;;;21.60;68.38;98975.69;4914336;29;20749;-64
2022/08/29 03:27:58;;;;;;;2.30;2.03;;;;;;;21.51;68.30;98971.59;4914440;29;20584;-65
2022/08/29 03:30:26;;;;;;;3.20;2.00;;;;;;;21.48;68.36;98966.75;4914317;29;20240;-65
2022/08/29 03:32:53;;;;;;;2.73;2.33;;;;;;;21.44;68.69;98973.31;4914334;29;20203;-64
2022/08/29 03:35:21;;;;;;;4.47;2.50;;;;;;;21.48;69.10;98975.34;4914458;29;20414;-64
2022/08/29 03:37:48;;;;;;;3.03;2.23;;;;;;;21.51;69.17;98970.78;4914096;29;20210;-64
2022/08/29 03:40:16;;;;;;;3.97;1.90;;;;;;;21.45;69.40;98982.72;4913987;29;20751;-65
2022/08/29 03:42:45;;;;;;;5.80;2.03;;;;;;;21.45;69.33;98977.53;4913898;29;20661;-64
2022/08/29 03:45:14;;;;;;;3.43;2.23;;;;;;;21.38;69.77;98990.47;4914167;29;20728;-64
2022/08/29 03:47:42;;;;;;;2.43;2.03;;;;;;;21.28;71.22;98992.50;4914058;29;20210;-64
2022/08/29 03:50:10;;;;;;;2.70;2.17;;;;;;;21.21;70.93;98992.44;4914083;29;20227;-64
2022/08/29 03:52:38;;;;;;;2.03;1.87;;;;;;;21.26;70.86;98994.47;4913825;29;20607;-65
2022/08/29 03:55:06;;;;;;;3.30;2.20;;;;;;;21.30;71.00;98997.53;4913675;29;20287;-64
2022/08/29 03:57:33;;;;;;;3.60;2.53;;;;;;;21.30;70.90;99000.94;4913706;29;20203;-65
2022/08/29 04:00:09;;;;;;;4.70;2.30;;;;;;;21.35;71.63;99002.97;4913729;29;20716;-65
2022/08/29 04:02:36;;;;;;;3.27;2.10;;;;;;;21.27;72.52;99011.69;4914015;29;20292;-64
2022/08/29 04:05:09;;;;;;;2.90;2.47;;;;;;;21.25;72.64;99018.88;4913565;29;20223;-64
2022/08/29 04:07:47;;;;;;;3.20;2.13;;;;;;;21.17;73.07;99006.75;4913781;29;20609;-64
2022/08/29 04:10:17;;;;;;;2.77;2.13;;;;;;;21.22;73.22;99014.03;4913459;29;20227;-65
2022/08/29 04:12:44;;;;;;;2.63;2.23;;;;;;;21.24;73.07;99012.88;4913883;29;20263;-64
2022/08/29 04:15:13;;;;;;;5.03;2.43;;;;;;;21.25;73.61;99019.66;4913442;29;20241;-64
2022/08/29 04:17:41;;;;;;;4.17;2.40;;;;;;;21.26;73.46;99020.47;4913562;29;20302;-64
2022/08/29 04:20:09;;;;;;;3.17;2.30;;;;;;;21.31;73.93;99018.13;4913493;29;20242;-65
2022/08/29 04:22:39;;;;;;;3.40;2.20;;;;;;;21.36;73.85;99020.22;4913438;29;20201;-64
2022/08/29 04:25:09;;;;;;;3.43;2.40;;;;;;;21.36;73.97;99026.25;4913567;29;20237;-65
2022/08/29 04:27:36;;;;;;;3.27;2.33;;;;;;;21.38;73.91;99024.28;4913263;29;20208;-64
2022/08/29 04:30:06;;;;;;;3.13;2.17;;;;;;;21.48;74.47;99019.56;4913238;29;20227;-64
2022/08/29 04:32:35;;;;;;;4.40;2.47;;;;;;;21.50;74.19;99015.97;4913418;29;20304;-65
2022/08/29 04:35:02;;;;;;;4.83;2.57;;;;;;;21.53;74.09;99019.03;4913383;29;20238;-64
2022/08/29 04:37:29;;;;;;;3.20;2.40;;;;;;;21.58;74.57;99032.28;4913199;29;20204;-64
2022/08/29 04:39:56;;;;;;;2.90;2.40;;;;;;;21.59;74.60;99023.50;4913039;29;20241;-65
2022/08/29 04:42:23;;;;;;;3.57;2.80;;;;;;;21.66;73.95;99028.78;4913000;29;20668;-64
2022/08/29 04:44:50;;;;;;;3.57;2.50;;;;;;;21.82;74.29;99025.97;4913184;29;20219;-64
2022/08/29 04:47:20;;;;;;;3.47;2.33;;;;;;;21.89;73.47;99015.59;4913086;29;20207;-64
2022/08/29 04:49:55;;;;;;;3.90;2.53;;;;;;;21.90;73.98;99022.41;4913076;29;20208;-64
2022/08/29 04:52:22;;;;;;;4.03;2.20;;;;;;;21.97;73.59;99022.50;4912940;29;20217;-64
2022/08/29 04:54:49;;;;;;;2.50;2.03;;;;;;;22.06;73.82;99032.59;4913141;29;20215;-65
2022/08/29 04:57:16;;;;;;;3.50;2.40;;;;;;;22.24;73.17;99032.19;4913139;29;20215;-65
2022/08/29 04:59:42;;;;;;;5.07;2.27;;;;;;;22.36;72.43;99037.69;4913131;29;20243;-65
2022/08/29 05:02:09;;;;;;;3.80;2.50;;;;;;;22.46;72.02;99029.56;4912938;29;20228;-64
2022/08/29 05:04:36;;;;;;;3.67;2.37;;;;;;;22.56;71.61;99036.03;4912952;29;20271;-64
2022/08/29 05:07:04;;;;;;;3.23;2.47;;;;;;;22.68;70.39;99036.31;4912832;29;20250;-65
2022/08/29 05:09:31;;;;;;;3.87;2.37;;;;;;;22.81;70.99;99028.59;4913084;29;20214;-64
2022/08/29 05:11:58;;;;;;;4.20;2.50;;;;;;;22.98;69.86;99030.91;4912892;29;20227;-64
2022/08/29 05:14:25;;;;;;;2.60;2.17;;;;;;;23.15;69.29;99029.59;4912829;29;20207;-64
2022/08/29 05:16:52;;;;;;;3.28;2.30;;;;;;;23.29;68.79;99027.84;4912748;29;20223;-64
2022/08/29 05:19:19;;;;;;;3.28;2.47;;;;;;;23.46;68.82;99028.34;4912904;29;20256;-65
2022/08/29 05:21:46;;;;;;;7.50;2.70;;;;;;;23.61;68.14;99036.81;4912791;29;20235;-65
2022/08/29 05:24:14;;;;;;;3.00;2.50;;;;;;;23.73;66.69;99040.47;4912708;29;20726;-64
2022/08/29 05:26:44;;;;;;;4.45;2.65;;;;;;;23.91;65.75;99036.50;4912852;29;20258;-64
2022/08/29 05:29:12;;;;;;;3.47;2.38;;;;;;;24.06;66.31;99033.75;4912830;29;20211;-65
2022/08/29 05:31:42;;;;;;;3.15;2.40;;;;;;;24.21;67.22;99036.16;4912737;29;20745;-64
2022/08/29 05:34:10;;;;;;;3.75;2.75;;;;;;;24.38;66.38;99037.38;4915992;29;20212;-64
2022/08/29 05:36:37;;;;;;;4.57;2.78;;;;;;;24.50;65.12;99050.66;4916248;29;20264;-64
2022/08/29 05:39:04;;;;;;;3.13;2.28;;;;;;;24.59;64.61;99045.03;4916178;29;20204;-64
2022/08/29 05:41:32;;;;;;;3.70;2.70;;;;;;;24.72;63.72;99061.69;4916206;29;20231;-64
2022/08/29 05:43:59;;;;;;;4.68;2.85;;;;;;;24.83;65.56;99061.06;4916173;29;20204;-64
2022/08/29 05:46:26;;;;;;;2.78;2.47;;;;;;;24.91;64.37;99066.09;4916118;29;20231;-64
2022/08/29 05:48:53;;;;;;;3.33;2.38;;;;;;;24.90;63.49;99067.13;4916058;29;20201;-64
2022/08/29 05:51:23;;;;;;;3.47;2.55;;;;;;;24.93;63.02;99066.72;4915826;29;20739;-64
2022/08/29 05:53:50;;;;;;;4.50;2.65;;;;;;;25.10;63.08;99077.50;4916236;29;20216;-65
2022/08/29 05:56:24;;;;;;;3.83;2.40;;;;;;;25.36;64.52;99079.28;4916005;29;20227;-64
2022/08/29 05:58:53;;;;;;;3.65;2.47;;;;;;;25.56;62.54;99075.78;4916210;29;20204;-64
2022/08/29 06:01:25;;;;;;;5.07;3.08;;;;;;;25.67;61.81;99072.50;4915941;29;20283;-65
2022/08/29 06:03:52;;;;;;;3.70;2.80;;;;;;;25.73;62.05;99079.53;4916286;29;20215;-64
2022/08/29 06:06:21;;;;;;;4.13;2.92;;;;;;;25.67;61.07;99075.13;4915758;29;20250;-65
2022/08/29 06:08:48;;;;;;;3.97;2.90;;;;;;;25.76;62.46;99079.13;4916073;29;20204;-65
2022/08/29 06:11:17;;;;;;;5.60;2.90;;;;;;;25.76;61.52;99076.50;4915606;29;20279;-64
2022/08/29 06:13:44;;;;;;;3.40;2.50;;;;;;;25.91;62.63;99082.28;4915923;29;20208;-65
2022/08/29 06:16:13;;;;;;;4.05;2.53;;;;;;;25.87;61.11;99078.47;4915699;29;20224;-64
2022/08/29 06:18:40;;;;;;;4.35;2.90;;;;;;;25.83;61.56;99084.34;4915630;29;20701;-64
2022/08/29 06:21:08;;;;;;;3.97;2.70;;;;;;;25.75;61.23;99080.94;4915366;29;20714;-64
2022/08/29 06:23:35;;;;;;;4.05;2.42;;;;;;;25.69;60.99;99080.97;4915525;29;20231;-65
2022/08/29 06:26:02;;;;;;;4.32;2.42;;;;;;;25.58;61.31;99084.25;4915513;29;20235;-65
2022/08/29 06:28:29;;;;;;;4.40;2.50;;;;;;;25.44;62.83;99078.25;4915624;29;20211;-64
2022/08/29 06:30:57;;;;;;;2.95;2.40;;;;;;;25.68;63.47;99085.38;4915265;29;20251;-65
2022/08/29 06:33:25;;;;;;;3.22;2.45;;;;;;;25.81;62.23;99084.53;4915233;29;20208;-64
2022/08/29 06:35:53;;;;;;;3.50;2.70;;;;;;;25.95;62.15;99091.34;4915165;29;20224;-64
2022/08/29 06:38:19;;;;;;;4.15;2.83;;;;;;;26.25;62.61;99090.75;4915401;29;20204;-65
2022/08/29 06:40:46;;;;;;;3.58;2.63;;;;;;;26.38;61.42;99088.03;4915478;29;20251;-65
2022/08/29 06:43:13;;;;;;;4.15;2.75;;;;;;;26.68;60.60;99090.03;4915119;29;20263;-65
2022/08/29 06:45:41;;;;;;;2.75;2.20;;;;;;;26.96;60.26;99091.38;4915216;29;20224;-65
2022/08/29 06:48:08;;;;;;;3.47;2.60;;;;;;;26.81;59.40;99089.91;4915074;29;20741;-65
2022/08/29 06:50:38;;;;;;;3.38;2.67;;;;;;;26.47;57.70;99093.81;4915273;29;20220;-65
2022/08/29 06:53:06;;;;;;;3.65;2.75;;;;;;;26.41;59.92;99100.72;4914818;29;20212;-65
2022/08/29 06:55:35;;;;;;;5.25;3.20;;;;;;;26.46;60.07;99107.13;4914955;29;20220;-65
2022/08/29 06:58:01;;;;;;;4.45;2.97;;;;;;;26.45;60.45;99105.53;4915194;29;20219;-65
2022/08/29 07:00:28;;;;;;;5.35;3.17;;;;;;;26.46;60.41;99107.13;4914772;29;20240;-65
2022/08/29 07:02:55;;;;;;;3.08;2.58;;;;;;;26.42;59.46;99093.66;4914841;29;20208;-64
2022/08/29 07:05:23;;;;;;;4.28;2.78;;;;;;;26.26;59.91;99107.28;4914908;29;20232;-65
2022/08/29 07:07:52;;;;;;;3.60;2.67;;;;;;;26.15;59.64;99109.56;4914973;29;20197;-65
2022/08/29 07:10:19;;;;;;;4.03;2.58;;;;;;;26.05;59.81;99113.66;4914761;29;20760;-65
2022/08/29 07:12:46;;;;;;;2.97;2.55;;;;;;;26.04;60.55;99107.63;4914519;29;20208;-64
2022/08/29 07:15:13;;;;;;;3.17;2.40;;;;;;;26.02;61.18;99117.50;4914735;29;20232;-65
2022/08/29 07:17:40;;;;;;;4.25;2.63;;;;;;;26.11;61.48;99115.44;4914719;29;20203;-65
2022/08/29 07:20:09;;;;;;;4.15;2.83;;;;;;;26.08;60.61;99121.88;4914411;29;20295;-65
2022/08/29 07:22:36;;;;;;;3.88;2.58;;;;;;;26.33;62.05;99129.81;4914670;29;20955;-64
2022/08/29 07:25:05;;;;;;;5.10;2.88;;;;;;;26.68;62.84;99121.50;4914344;29;20228;-64
2022/08/29 07:27:32;;;;;;;4.95;3.28;;;;;;;26.93;60.58;99125.94;4914255;29;20602;-65
2022/08/29 07:30:01;;;;;;;4.88;2.97;;;;;;;27.15;59.01;99131.59;4914671;29;20215;-65
2022/08/29 07:32:28;;;;;;;3.65;2.78;;;;;;;27.29;59.94;99128.63;4914147;29;20211;-65
2022/08/29 07:34:55;;;;;;;4.47;3.17;;;;;;;27.57;57.78;99129.91;4914430;29;20204;-65
2022/08/29 07:37:22;;;;;;;5.00;3.35;;;;;;;27.76;59.36;99134.13;4914044;29;20212;-64
2022/08/29 07:39:49;;;;;;;5.50;3.08;;;;;;;27.94;56.01;99129.91;4914319;29;20239;-65
2022/08/29 07:42:17;;;;;;;5.30;3.10;;;;;;;28.13;55.69;99128.84;4914164;29;20456;-65
2022/08/29 07:44:44;;;;;;;3.28;2.67;;;;;;;28.43;54.71;99126.19;4914062;29;20215;-65
2022/08/29 07:47:11;;;;;;;4.43;3.00;;;;;;;28.80;52.94;99128.63;4914027;29;20208;-65
2022/08/29 07:49:38;;;;;;;3.80;2.75;;;;;;;28.86;54.27;99121.66;4914286;29;20299;-65
2022/08/29 07:52:05;;;;;;;4.32;3.10;;;;;;;29.04;53.73;99129.44;4914064;29;20230;-65
2022/08/29 07:54:32;;;;;;;4.05;3.15;;;;;;;29.43;56.21;99129.72;4913772;29;20208;-65
2022/08/29 07:56:59;;;;;;;6.30;3.22;;;;;;;29.40;52.34;99138.09;4913335;29;20224;-65
2022/08/29 07:59:27;;;;;;;4.65;3.60;;;;;;;29.37;52.50;99128.03;4913791;29;20215;-65
2022/08/29 08:01:54;;;;;;;5.40;3.35;;;;;;;29.39;54.13;99139.13;4913798;29;20246;-65
2022/08/29 08:04:21;;;;;;;5.50;3.13;;;;;;;29.62;54.06;99148.03;4913731;29;20589;-65
2022/08/29 08:06:48;;;;;;;3.22;2.55;;;;;;;29.73;51.86;99153.28;4913648;29;20630;-65
2022/08/29 08:09:15;;;;;;;3.95;2.97;;;;;;;30.11;55.01;99159.00;4913548;29;20208;-65
2022/08/29 08:11:42;;;;;;;5.32;2.90;;;;;;;30.30;48.29;99156.97;4913933;29;20224;-65
2022/08/29 08:14:10;;;;;;;4.15;3.17;;;;;;;30.84;52.40;99152.84;4913454;29;20204;-65
2022/08/29 08:16:38;;;;;;;5.38;3.22;;;;;;;31.01;50.60;99157.28;4913658;29;20721;-66
2022/08/29 08:19:05;;;;;;;4.38;3.25;;;;;;;31.22;47.32;99145.19;4913358;29;20215;-65
2022/08/29 08:21:33;;;;;;;4.00;2.95;;;;;;;31.46;52.03;99153.69;4913405;29;20247;-65
2022/08/29 08:24:00;;;;;;;3.83;3.05;;;;;;;31.38;47.56;99154.13;4913524;29;20212;-66
2022/08/29 08:26:27;;;;;;;3.78;2.90;;;;;;;31.20;47.22;99150.69;4913313;29;20228;-65
2022/08/29 08:28:54;;;;;;;3.72;2.97;;;;;;;31.04;47.46;99156.81;4913296;29;20223;-66
2022/08/29 08:31:21;;;;;;;4.65;3.20;;;;;;;30.98;48.66;99157.78;4913115;29;20624;-66
2022/08/29 08:33:50;;;;;;;3.38;2.80;;;;;;;31.05;45.46;99158.44;4913369;29;20215;-65
2022/08/29 08:36:21;;;;;;;3.97;3.00;;;;;;;31.46;47.84;99148.41;4913222;29;20303;-66
2022/08/29 08:38:48;;;;;;;4.32;2.80;;;;;;;31.80;46.85;99155.16;4913501;29;20211;-65
2022/08/29 08:41:28;;;;;;;3.65;2.78;;;;;;;32.17;48.20;99153.69;4913109;29;20236;-66
2022/08/29 08:44:00;;;;;;;3.90;2.95;;;;;;;32.72;47.65;99155.22;4913125;29;20678;-66
2022/08/29 08:46:35;;;;;;;3.83;2.72;;;;;;;32.77;42.54;99152.59;4913190;29;20223;-66
2022/08/29 08:49:07;;;;;;;5.25;3.08;;;;;;;32.98;42.20;99153.53;4913069;29;20632;-66
2022/08/29 08:51:37;;;;;;;3.47;2.70;;;;;;;33.18;45.14;99157.38;4912984;29;20227;-66
2022/08/29 08:54:09;;;;;;;2.92;2.58;;;;;;;33.05;40.46;99146.19;4913178;29;20230;-66
2022/08/29 08:56:42;;;;;;;5.00;2.70;;;;;;;33.27;43.81;99150.53;4912997;29;20238;-66
2022/08/29 08:59:16;;;;;;;3.85;2.60;;;;;;;33.23;39.95;99149.47;4913076;29;20208;-66
2022/08/29 09:01:45;;;;;;;3.03;2.63;;;;;;;33.36;39.87;99148.97;4912984;29;20243;-65
2022/08/29 09:04:37;;;;;;;3.03;2.70;;;;;;;33.74;44.01;99152.31;4913043;29;20231;-66
2022/08/29 09:07:38;;;;;;;3.60;2.53;;;;;;;33.70;43.97;99159.22;4913014;29;20227;-66
2022/08/29 09:10:17;;;;;;;3.25;2.53;;;;;;;33.70;44.43;99160.00;4916932;29;20865;-66
2022/08/29 09:12:53;;;;;;;6.35;3.00;;;;;;;33.55;40.86;99155.44;4917028;29;20196;-66
2022/08/29 09:15:23;;;;;;;3.08;2.58;;;;;;;33.40;42.27;99155.38;4916869;29;20717;-66
2022/08/29 09:17:56;;;;;;;3.28;2.90;;;;;;;32.93;40.79;99161.47;4916755;29;20211;-66
2022/08/29 09:20:27;;;;;;;3.35;2.72;;;;;;;32.87;41.13;99159.81;4916659;29;20710;-66
2022/08/29 09:22:59;;;;;;;4.05;3.00;;;;;;;32.76;42.20;99161.63;4916737;29;20204;-66
2022/08/29 09:25:28;;;;;;;5.22;2.83;;;;;;;32.67;41.80;99158.66;4916618;29;20291;-66
2022/08/29 09:27:57;;;;;;;3.30;2.70;;;;;;;32.50;43.11;99157.19;4916420;29;20208;-66
2022/08/29 09:30:27;;;;;;;2.60;2.40;;;;;;;32.29;42.52;99156.16;4916746;29;20236;-66
2022/08/29 09:33:01;;;;;;;3.40;2.78;;;;;;;32.40;44.49;99157.84;4916500;29;20231;-66
2022/08/29 09:35:36;;;;;;;4.00;2.60;;;;;;;32.20;41.89;99154.00;4916560;29;20290;-66
2022/08/29 09:38:06;;;;;;;4.13;2.60;;;;;;;32.03;42.69;99155.94;4916647;29;20266;-65
2022/08/29 09:40:47;;;;;;;3.60;2.67;;;;;;;32.17;43.28;99159.78;4916544;29;20635;-66
2022/08/29 09:43:26;;;;;;;4.38;2.58;;;;;;;32.08;43.00;99155.97;4916107;29;20207;-66
2022/08/29 09:46:05;;;;;;;3.03;2.70;;;;;;;32.04;45.37;99162.81;4916273;29;20224;-66
2022/08/29 09:48:32;;;;;;;4.57;2.70;;;;;;;31.92;45.88;99167.47;4916486;29;20214;-66
2022/08/29 09:51:14;;;;;;;4.03;2.80;;;;;;;31.89;43.95;99165.28;4916031;29;20231;-66
2022/08/29 09:53:41;;;;;;;4.00;2.85;;;;;;;31.92;44.30;99167.47;4916118;29;20200;-66
2022/08/29 09:56:15;;;;;;;2.70;2.33;;;;;;;31.88;45.59;99161.81;4915911;29;20654;-66
2022/08/29 09:58:42;;;;;;;3.80;2.58;;;;;;;31.64;45.86;99163.16;4916066;29;20219;-66
2022/08/29 10:01:16;;;;;;;3.20;2.55;;;;;;;31.62;44.77;99154.66;4916114;29;20251;-66
2022/08/29 10:03:52;;;;;;;4.43;2.80;;;;;;;31.39;44.74;99158.34;4916016;29;20700;-66
2022/08/29 10:06:25;;;;;;;3.25;2.63;;;;;;;31.60;46.00;99160.22;4915957;29;20239;-66
2022/08/29 10:08:58;;;;;;;3.00;2.50;;;;;;;31.57;44.24;99158.06;4916069;29;20682;-66
2022/08/29 10:11:31;;;;;;;3.72;2.65;;;;;;;31.60;46.01;99160.22;4915728;29;20608;-66
2022/08/29 10:14:02;;;;;;;5.43;2.45;;;;;;;31.58;44.55;99154.38;4915566;29;20200;-66
2022/08/29 10:16:40;;;;;;;3.63;2.88;;;;;;;31.54;44.03;99153.28;4915655;29;20228;-66
2022/08/29 10:19:12;;;;;;;2.75;2.30;;;;;;;31.56;43.57;99156.44;4915222;29;20208;-66
2022/08/29 10:21:50;;;;;;;3.20;2.50;;;;;;;31.48;43.11;99159.53;4915943;29;20248;-66
2022/08/29 10:24:36;;;;;;;3.78;2.60;;;;;;;31.57;44.42;99155.41;4915466;29;20216;-66
2022/08/29 10:27:16;;;;;;;3.50;2.42;;;;;;;31.95;42.74;99148.47;4915408;29;20232;-66
2022/08/29 10:30:01;;;;;;;3.60;2.60;;;;;;;32.27;44.77;99150.34;4915340;29;20756;-66
2022/08/29 10:32:51;;;;;;;3.90;2.90;;;;;;;32.22;43.40;99157.16;4915494;29;20231;-66
2022/08/29 10:35:25;;;;;;;2.40;2.05;;;;;;;32.26;42.52;99157.50;4915592;29;20718;-58
2022/08/29 10:37:57;;;;;;;3.67;2.50;;;;;;;32.48;41.27;99157.44;4915424;29;20230;-58
2022/08/29 10:40:30;;;;;;;3.30;2.30;;;;;;;33.08;47.31;99158.94;4915380;29;20236;-58
2022/08/29 10:43:16;;;;;;;2.95;2.40;;;;;;;33.45;39.38;99150.06;4915391;29;20208;-58
2022/08/29 10:45:56;;;;;;;3.75;2.65;;;;;;;33.83;40.36;99142.78;4915517;29;20227;-58
2022/08/29 10:48:31;;;;;;;4.10;2.78;;;;;;;33.67;38.95;99138.53;4915481;29;20207;-58
2022/08/29 10:51:13;;;;;;;3.50;2.63;;;;;;;33.52;39.05;99137.41;4915218;29;20250;-58
2022/08/29 10:53:44;;;;;;;5.28;2.67;;;;;;;33.42;39.25;99132.03;4915132;29;20208;-58
2022/08/29 10:56:20;;;;;;;5.45;2.63;;;;;;;33.17;40.94;99127.44;4914783;29;20235;-58
2022/08/29 10:58:58;;;;;;;4.15;2.50;;;;;;;33.24;39.53;99127.19;4914842;29;20208;-58
2022/08/29 11:01:30;;;;;;;4.43;2.65;;;;;;;33.22;38.58;99118.69;4914657;29;20809;-58
2022/08/29 11:04:08;;;;;;;3.47;2.40;;;;;;;33.02;38.77;99114.91;4914950;29;20208;-58
2022/08/29 11:06:41;;;;;;;4.72;2.70;;;;;;;33.09;39.72;99112.81;4914761;29;20239;-58
2022/08/29 11:09:16;;;;;;;3.40;2.72;;;;;;;33.20;41.58;99113.69;4914701;29;20304;-58
2022/08/29 11:11:48;;;;;;;5.05;3.05;;;;;;;33.04;41.40;99110.16;4915007;29;20227;-58
2022/08/29 11:14:23;;;;;;;4.78;2.30;;;;;;;32.84;41.57;99104.72;4914546;29;20216;-58
2022/08/29 11:16:52;;;;;;;4.60;2.67;;;;;;;32.80;41.85;99101.00;4914703;29;20227;-58
2022/08/29 11:19:25;;;;;;;3.35;2.67;;;;;;;32.58;44.46;99107.22;4914595;29;20204;-58
2022/08/29 11:21:56;;;;;;;7.80;4.45;;;;;;;32.54;42.65;99100.81;4914408;29;20761;-58
2022/08/29 11:24:28;;;;;;;7.95;4.38;;;;;;;32.51;40.30;99095.25;4914511;29;20239;-59
2022/08/29 11:27:08;;;;;;;5.57;3.55;;;;;;;32.52;41.29;99092.34;4914460;29;20231;-58
2022/08/29 11:29:42;;;;;;;8.63;5.13;;;;;;;32.59;40.84;99087.63;4914229;29;20196;-58
2022/08/29 11:32:21;;;;;;;8.63;5.45;;;;;;;32.95;41.31;99082.53;4914123;29;20207;-58
2022/08/29 11:35:03;;;;;;;3.92;2.58;;;;;;;33.38;41.57;99077.97;4914570;29;20204;-58
2022/08/29 11:38:06;;;;;;;3.47;2.65;;;;;;;33.49;37.16;99068.97;4914187;29;20413;-58
2022/08/29 11:40:49;;;;;;;6.63;3.75;;;;;;;33.96;41.06;99070.66;4914140;29;20223;-58
2022/08/29 11:43:19;;;;;;;3.22;2.70;;;;;;;34.08;40.91;99074.94;4914094;29;20214;-58
2022/08/29 11:45:56;;;;;;;3.40;2.50;;;;;;;34.14;37.21;99073.88;4914372;29;20224;-58
2022/08/29 11:48:32;;;;;;;4.25;2.50;;;;;;;34.24;38.71;99063.28;4913978;29;20234;-58
2022/08/29 11:51:00;;;;;;;4.18;2.45;;;;;;;34.36;39.71;99061.13;4913944;29;20251;-58